Time;durP1;ratioP1;P1;durP2;ratioP2;P2;SDS_P1;SDS_P2;PMS_P1;PMS_P2;Temp;Humidity;BMP_temperature;BMP_pressure;BME280_temperature;BME280_humidity;BME280_pressure;Samples;Min_cycle;Max_cycle;Signal;HPM_P1;HPM_P2
2023/04/01 00:00:21;;;;;;;5.28;1.92;;;16.90;59.80;;;;;;5015515;28;20030;-73
2023/04/01 00:02:47;;;;;;;5.20;1.58;;;16.90;60.00;;;;;;5015337;28;20157;-73
2023/04/01 00:05:14;;;;;;;5.20;1.70;;;16.90;59.80;;;;;;5015396;28;20041;-73
2023/04/01 00:07:40;;;;;;;4.60;1.67;;;16.90;59.80;;;;;;5015117;28;20535;-73
2023/04/01 00:10:07;;;;;;;5.60;2.22;;;16.90;59.70;;;;;;5014979;28;20018;-73
2023/04/01 00:12:33;;;;;;;5.35;1.70;;;16.90;59.70;;;;;;5014931;28;20030;-73
2023/04/01 00:14:59;;;;;;;9.23;2.20;;;16.90;59.70;;;;;;5014888;28;20469;-73
2023/04/01 00:17:25;;;;;;;7.55;2.33;;;16.90;59.80;;;;;;5014728;28;20042;-73
2023/04/01 00:19:50;;;;;;;7.13;2.22;;;16.90;59.80;;;;;;5014982;28;20030;-73
2023/04/01 00:22:16;;;;;;;6.03;1.83;;;16.90;59.70;;;;;;5014833;28;20048;-73
2023/04/01 00:24:42;;;;;;;7.30;2.35;;;16.90;59.70;;;;;;5014830;28;20024;-73
2023/04/01 00:27:08;;;;;;;7.10;2.25;;;16.90;59.60;;;;;;4997137;28;20035;-72
2023/04/01 00:29:34;;;;;;;4.70;1.80;;;16.80;59.60;;;;;;5014972;28;20401;-72
2023/04/01 00:32:00;;;;;;;5.03;2.13;;;16.90;59.60;;;;;;5014904;28;20022;-73
2023/04/01 00:34:27;;;;;;;7.32;2.35;;;16.80;59.60;;;;;;5014822;28;20052;-73
2023/04/01 00:36:53;;;;;;;6.05;2.05;;;16.80;59.60;;;;;;5014895;28;20026;-73
2023/04/01 00:39:22;;;;;;;6.43;2.25;;;16.90;59.70;;;;;;5014811;28;20036;-73
2023/04/01 00:41:48;;;;;;;5.45;2.10;;;16.80;59.60;;;;;;5014356;28;20028;-73
2023/04/01 00:44:19;;;;;;;6.78;2.25;;;16.80;59.70;;;;;;5014567;28;20050;-73
2023/04/01 00:46:45;;;;;;;13.10;2.75;;;16.80;59.70;;;;;;5013631;28;20101;-73
2023/04/01 00:49:13;;;;;;;10.35;2.53;;;16.80;59.70;;;;;;5014556;28;20025;-73
2023/04/01 00:51:41;;;;;;;10.40;3.08;;;16.80;59.80;;;;;;5014280;28;20014;-73
2023/04/01 00:54:09;;;;;;;10.23;2.60;;;16.80;59.90;;;;;;5014437;28;20030;-73
2023/04/01 00:56:40;;;;;;;8.02;2.92;;;16.80;59.70;;;;;;5014231;28;20603;-73
2023/04/01 00:59:16;;;;;;;8.68;2.40;;;16.80;59.80;;;;;;5014390;28;20370;-73
2023/04/01 01:01:42;;;;;;;8.30;2.88;;;16.70;59.80;;;;;;5014327;28;20107;-73
2023/04/01 01:04:22;;;;;;;11.27;3.00;;;16.80;60.50;;;;;;5014316;28;20155;-73
2023/04/01 01:07:11;;;;;;;8.55;3.13;;;16.80;59.70;;;;;;5014050;28;20474;-73
2023/04/01 01:09:47;;;;;;;9.15;2.80;;;16.80;59.70;;;;;;5014326;28;20049;-73
2023/04/01 01:12:24;;;;;;;8.13;3.17;;;16.70;59.70;;;;;;5014229;28;20030;-73
2023/04/01 01:15:07;;;;;;;9.27;2.85;;;16.70;59.60;;;;;;5014136;28;20393;-73
2023/04/01 01:17:55;;;;;;;8.10;2.50;;;16.70;59.60;;;;;;5014171;28;20065;-72
2023/04/01 01:21:01;;;;;;;8.98;3.10;;;16.70;59.70;;;;;;5013970;28;20393;-73
2023/04/01 01:23:54;;;;;;;9.77;3.05;;;16.70;59.60;;;;;;5007868;28;20050;-72
2023/04/01 01:26:50;;;;;;;9.40;3.45;;;16.70;59.70;;;;;;5013585;28;20030;-73
2023/04/01 01:29:42;;;;;;;7.95;2.63;;;16.70;59.70;;;;;;5004644;28;20470;-73
2023/04/01 01:32:10;;;;;;;8.88;3.13;;;16.70;59.70;;;;;;5013644;28;20595;-72
2023/04/01 01:34:54;;;;;;;9.75;3.10;;;16.70;59.70;;;;;;5013536;28;20037;-72
2023/04/01 01:37:23;;;;;;;7.53;2.53;;;16.70;59.70;;;;;;5013652;28;20041;-73
2023/04/01 01:39:54;;;;;;;9.88;2.90;;;16.70;59.70;;;;;;5013419;28;20092;-72
2023/04/01 01:42:22;;;;;;;8.25;3.05;;;16.70;59.70;;;;;;5013295;28;20176;-73
2023/04/01 01:44:49;;;;;;;6.88;2.65;;;16.70;59.70;;;;;;5013337;28;20061;-73
2023/04/01 01:47:17;;;;;;;7.45;2.78;;;16.60;59.70;;;;;;5013256;28;20503;-73
2023/04/01 01:49:44;;;;;;;8.48;2.97;;;16.60;60.40;;;;;;5013255;28;20030;-73
2023/04/01 01:52:12;;;;;;;12.52;4.10;;;16.60;59.70;;;;;;5013275;28;20033;-73
2023/04/01 01:54:51;;;;;;;8.48;2.90;;;16.60;59.70;;;;;;5013204;28;20026;-72
2023/04/01 01:57:20;;;;;;;8.25;3.00;;;16.60;59.80;;;;;;5012997;28;20036;-73
2023/04/01 01:59:48;;;;;;;7.50;2.38;;;16.60;59.80;;;;;;5013078;28;20532;-72
2023/04/01 02:02:15;;;;;;;9.70;2.80;;;16.60;59.70;;;;;;5012957;28;20034;-73
2023/04/01 02:04:43;;;;;;;6.05;2.92;;;16.60;59.80;;;;;;5012994;28;20058;-73
2023/04/01 02:07:20;;;;;;;6.40;2.28;;;16.60;59.80;;;;;;5013052;28;20033;-72
2023/04/01 02:09:48;;;;;;;8.45;3.03;;;16.50;59.70;;;;;;5012993;28;20026;-75
2023/04/01 02:12:16;;;;;;;5.97;2.40;;;16.50;59.70;;;;;;5012900;28;20034;-75
2023/04/01 02:15:06;;;;;;;8.65;3.00;;;16.50;59.80;;;;;;5012871;28;20404;-75
2023/04/01 02:17:33;;;;;;;7.60;2.53;;;16.50;59.70;;;;;;5012853;28;20121;-75
2023/04/01 02:20:20;;;;;;;6.95;2.50;;;16.50;59.70;;;;;;5013039;28;20429;-75
2023/04/01 02:22:52;;;;;;;6.95;2.47;;;16.50;59.70;;;;;;5012718;28;20096;-75
2023/04/01 02:25:23;;;;;;;6.07;2.22;;;16.50;59.80;;;;;;5012729;28;20030;-75
2023/04/01 02:27:49;;;;;;;6.10;2.22;;;16.50;59.70;;;;;;5012919;28;20421;-75
2023/04/01 02:30:16;;;;;;;6.90;2.35;;;16.50;59.80;;;;;;5012821;28;20109;-75
2023/04/01 02:32:42;;;;;;;5.15;1.90;;;16.40;59.80;;;;;;5012707;28;20477;-75
2023/04/01 02:35:11;;;;;;;8.10;2.20;;;16.40;59.80;;;;;;5012644;28;20101;-75
2023/04/01 02:37:42;;;;;;;7.20;2.53;;;16.40;59.80;;;;;;5012534;28;20064;-75
2023/04/01 02:40:09;;;;;;;5.57;2.03;;;16.40;59.80;;;;;;5012780;28;20381;-75
2023/04/01 02:42:35;;;;;;;6.47;2.08;;;16.40;59.80;;;;;;5012443;28;20389;-75
2023/04/01 02:45:01;;;;;;;5.00;1.88;;;16.40;59.80;;;;;;5012527;28;20022;-75
2023/04/01 02:47:27;;;;;;;4.93;1.80;;;16.40;59.80;;;;;;5012683;28;20030;-75
2023/04/01 02:49:57;;;;;;;6.25;2.40;;;16.40;59.80;;;;;;5012911;28;20029;-75
2023/04/01 02:52:27;;;;;;;4.63;1.77;;;16.40;59.80;;;;;;5012415;28;20564;-75
2023/04/01 02:54:53;;;;;;;5.63;2.45;;;16.40;59.80;;;;;;5012695;28;20022;-75
2023/04/01 02:57:19;;;;;;;4.85;2.00;;;16.40;59.80;;;;;;5012354;28;20080;-75
2023/04/01 02:59:45;;;;;;;6.63;2.28;;;16.40;59.90;;;;;;5012526;28;20026;-75
2023/04/01 03:02:11;;;;;;;6.25;2.30;;;16.40;59.90;;;;;;5012195;28;20543;-75
2023/04/01 03:04:36;;;;;;;4.60;1.70;;;16.40;59.90;;;;;;5012349;28;20080;-75
2023/04/01 03:07:02;;;;;;;5.75;1.92;;;16.30;59.80;;;;;;5012381;28;20507;-75
2023/04/01 03:09:28;;;;;;;6.40;2.20;;;16.30;59.80;;;;;;5014728;28;20034;-75
2023/04/01 03:11:54;;;;;;;5.43;1.70;;;16.40;59.90;;;;;;5016342;28;20054;-75
2023/04/01 03:14:20;;;;;;;6.72;1.98;;;16.40;68.80;;;;;;5016075;28;20034;-75
2023/04/01 03:16:45;;;;;;;4.20;1.83;;;16.30;59.90;;;;;;5016032;28;20045;-75
2023/04/01 03:19:11;;;;;;;4.88;1.60;;;16.40;59.90;;;;;;5016108;28;20409;-75
2023/04/01 03:21:37;;;;;;;4.25;1.73;;;16.40;59.80;;;;;;5016042;28;20111;-75
2023/04/01 03:24:03;;;;;;;3.90;1.52;;;16.30;59.80;;;;;;5015946;28;20092;-75
2023/04/01 03:26:28;;;;;;;4.85;1.65;;;16.30;59.80;;;;;;4998354;28;20026;-75
2023/04/01 03:28:55;;;;;;;4.03;1.67;;;16.30;59.90;;;;;;5015988;28;20033;-75
2023/04/01 03:31:21;;;;;;;3.53;1.52;;;16.30;60.00;;;;;;5015961;28;20034;-75
2023/04/01 03:33:47;;;;;;;4.22;1.38;;;16.30;59.90;;;;;;5015892;28;20392;-75
2023/04/01 03:36:12;;;;;;;4.40;1.80;;;16.40;59.90;;;;;;5015832;28;20041;-75
2023/04/01 03:38:42;;;;;;;3.38;1.60;;;16.30;59.90;;;;;;5015719;28;20022;-75
2023/04/01 03:41:14;;;;;;;3.88;1.60;;;16.30;60.00;;;;;;5016103;28;20109;-75
2023/04/01 03:43:40;;;;;;;4.20;1.55;;;16.30;59.90;;;;;;5015660;28;20046;-75
2023/04/01 03:46:05;;;;;;;3.03;1.45;;;16.30;59.80;;;;;;5015608;28;20026;-75
2023/04/01 03:48:31;;;;;;;2.33;1.27;;;16.30;59.80;;;;;;5015804;28;20225;-75
2023/04/01 03:50:57;;;;;;;3.47;1.45;;;16.30;59.90;;;;;;5015488;28;20022;-75
2023/04/01 03:53:23;;;;;;;2.83;1.45;;;16.30;59.90;;;;;;5015500;28;20037;-75
2023/04/01 03:55:51;;;;;;;4.07;1.73;;;16.30;59.90;;;;;;5015490;28;20022;-75
2023/04/01 03:58:17;;;;;;;3.47;1.33;;;16.30;59.90;;;;;;5015489;28;20041;-75
2023/04/01 04:00:43;;;;;;;3.35;1.38;;;16.20;59.90;;;;;;5015515;28;20511;-75
2023/04/01 04:03:08;;;;;;;4.13;1.25;;;16.30;60.00;;;;;;5015347;28;20073;-75
2023/04/01 04:05:34;;;;;;;1.73;1.25;;;16.20;59.90;;;;;;5015320;28;20030;-75
2023/04/01 04:08:00;;;;;;;2.25;1.08;;;16.20;59.90;;;;;;5015279;28;20064;-75
2023/04/01 04:10:25;;;;;;;3.92;1.33;;;16.20;60.00;;;;;;5015209;28;20112;-75
2023/04/01 04:12:52;;;;;;;2.45;1.48;;;16.20;59.90;;;;;;5015180;28;20662;-75
2023/04/01 04:15:18;;;;;;;2.30;1.17;;;16.20;59.90;;;;;;5014974;28;20033;-75
2023/04/01 04:17:47;;;;;;;1.88;1.05;;;16.20;59.90;;;;;;5015226;28;20038;-75
2023/04/01 04:20:13;;;;;;;2.60;0.98;;;16.20;59.80;;;;;;5015183;28;20483;-75
2023/04/01 04:22:38;;;;;;;3.58;1.00;;;16.20;59.90;;;;;;5014840;28;20109;-75
2023/04/01 04:25:05;;;;;;;2.40;1.08;;;16.20;59.90;;;;;;5014854;28;20485;-75
2023/04/01 04:27:31;;;;;;;2.10;1.02;;;16.20;59.90;;;;;;5014843;28;20097;-75
2023/04/01 04:29:56;;;;;;;1.95;1.10;;;16.20;59.90;;;;;;5014872;28;20127;-75
2023/04/01 04:32:22;;;;;;;2.50;1.13;;;16.20;59.90;;;;;;5014768;28;20448;-75
2023/04/01 04:34:47;;;;;;;3.28;1.08;;;16.20;60.50;;;;;;5014948;28;20018;-75
2023/04/01 04:37:13;;;;;;;1.98;1.17;;;16.20;59.80;;;;;;5014959;28;20090;-75
2023/04/01 04:39:38;;;;;;;2.10;1.17;;;16.20;59.90;;;;;;5014673;28;20022;-75
2023/04/01 04:42:05;;;;;;;2.30;1.00;;;16.20;59.90;;;;;;5014620;28;20022;-75
2023/04/01 04:44:31;;;;;;;1.67;0.75;;;16.20;59.90;;;;;;5014614;28;20033;-75
2023/04/01 04:46:56;;;;;;;1.55;0.90;;;16.20;59.80;;;;;;5014590;28;20030;-75
2023/04/01 04:49:22;;;;;;;2.60;1.20;;;16.20;59.90;;;;;;5014538;28;20493;-75
2023/04/01 04:51:48;;;;;;;1.58;1.05;;;16.20;59.90;;;;;;5014534;28;20030;-75
2023/04/01 04:54:13;;;;;;;0.93;0.77;;;16.20;59.90;;;;;;5014671;28;20026;-75
2023/04/01 04:56:39;;;;;;;1.52;1.10;;;16.10;59.90;;;;;;5014425;28;20101;-75
2023/04/01 04:59:05;;;;;;;1.63;0.75;;;16.20;59.90;;;;;;5014303;28;20109;-75
2023/04/01 05:01:30;;;;;;;1.92;1.00;;;16.10;59.90;;;;;;5014367;28;20056;-75
2023/04/01 05:03:56;;;;;;;2.28;0.90;;;16.20;60.60;;;;;;5014114;28;20037;-74
2023/04/01 05:06:22;;;;;;;2.15;0.82;;;16.20;60.00;;;;;;5014376;28;20014;-75
2023/04/01 05:08:48;;;;;;;2.30;0.90;;;16.10;59.90;;;;;;5014415;28;20030;-75
2023/04/01 05:11:20;;;;;;;1.33;0.82;;;16.10;59.90;;;;;;5020009;28;20029;-74
2023/04/01 05:13:47;;;;;;;1.55;0.65;;;16.10;60.00;;;;;;5015391;28;20026;-75
2023/04/01 05:16:16;;;;;;;1.55;0.95;;;16.10;60.00;;;;;;5013848;28;20049;-74
2023/04/01 05:18:43;;;;;;;3.23;0.97;;;16.10;60.00;;;;;;5014286;28;20101;-77
2023/04/01 05:21:11;;;;;;;1.55;0.80;;;16.10;60.00;;;;;;5014303;28;20477;-77
2023/04/01 05:23:38;;;;;;;1.20;0.70;;;16.10;60.00;;;;;;5014676;28;20033;-77
2023/04/01 05:26:06;;;;;;;1.75;0.77;;;16.10;60.00;;;;;;5014065;28;20033;-75
2023/04/01 05:28:32;;;;;;;2.03;0.77;;;16.10;60.00;;;;;;5013758;28;20026;-75
2023/04/01 05:31:00;;;;;;;1.45;0.82;;;16.10;59.90;;;;;;5013697;28;20370;-75
2023/04/01 05:33:27;;;;;;;1.27;0.80;;;16.10;60.00;;;;;;5013526;28;20030;-75
2023/04/01 05:35:54;;;;;;;1.15;0.55;;;16.10;60.10;;;;;;5013862;28;20089;-75
2023/04/01 05:38:20;;;;;;;1.48;0.93;;;16.10;60.20;;;;;;5013393;28;20042;-75
2023/04/01 05:40:46;;;;;;;1.83;0.90;;;16.10;60.20;;;;;;5013730;28;20017;-75
2023/04/01 05:43:12;;;;;;;1.52;0.65;;;16.10;60.20;;;;;;5013575;28;20026;-75
2023/04/01 05:45:38;;;;;;;3.05;1.20;;;16.20;60.20;;;;;;5013672;28;20026;-75
2023/04/01 05:48:04;;;;;;;1.50;1.40;;;16.20;60.20;;;;;;5013501;28;20026;-75
2023/04/01 05:50:31;;;;;;;2.63;2.33;;;16.20;60.30;;;;;;5013978;28;20014;-75
2023/04/01 05:52:57;;;;;;;3.42;3.13;;;16.20;60.40;;;;;;5013663;28;20428;-75
2023/04/01 05:55:23;;;;;;;4.57;4.28;;;16.20;60.50;;;;;;5013485;28;20354;-75
2023/04/01 05:57:49;;;;;;;7.57;6.97;;;16.20;60.50;;;;;;5013463;28;20428;-75
2023/04/01 06:00:16;;;;;;;10.00;8.82;;;16.30;60.70;;;;;;5013115;28;20496;-75
2023/04/01 06:02:42;;;;;;;13.07;12.13;;;16.20;60.60;;;;;;5012953;28;20084;-78
2023/04/01 06:05:19;;;;;;;16.45;15.00;;;16.30;60.80;;;;;;5014011;28;20097;-78
2023/04/01 06:07:45;;;;;;;20.27;18.63;;;16.20;60.80;;;;;;5013624;28;20026;-77
2023/04/01 06:10:19;;;;;;;21.70;20.10;;;16.30;60.90;;;;;;5013876;28;20432;-82
2023/04/01 06:12:55;;;;;;;23.90;22.20;;;16.30;60.90;;;;;;5013947;28;20034;-77
2023/04/01 06:15:33;;;;;;;24.65;22.85;;;16.20;60.90;;;;;;5013727;28;20053;-77
2023/04/01 06:18:19;;;;;;;26.05;24.05;;;16.20;60.90;;;;;;5013334;28;20484;-77
2023/04/01 06:20:57;;;;;;;26.80;24.80;;;16.20;60.80;;;;;;5013287;28;20543;-78
2023/04/01 06:23:32;;;;;;;24.50;22.80;;;16.20;60.90;;;;;;5013087;28;20377;-75
2023/04/01 06:26:01;;;;;;;23.73;22.05;;;16.20;60.80;;;;;;5013190;28;20076;-75
2023/04/01 06:28:45;;;;;;;25.92;24.00;;;16.20;60.90;;;;;;5013053;28;20422;-75
2023/04/01 06:31:45;;;;;;;25.15;23.40;;;16.30;60.90;;;;;;5012721;28;20474;-75
2023/04/01 06:34:39;;;;;;;24.17;22.48;;;16.30;60.80;;;;;;5012969;28;20381;-75
2023/04/01 06:37:26;;;;;;;24.10;22.38;;;16.20;60.90;;;;;;5012574;28;20018;-74
2023/04/01 06:40:09;;;;;;;23.95;22.25;;;16.30;60.90;;;;;;5012567;28;20034;-74
2023/04/01 06:42:43;;;;;;;22.52;20.92;;;16.30;60.80;;;;;;5011928;28;20037;-74
2023/04/01 06:45:32;;;;;;;21.30;19.90;;;16.30;60.80;;;;;;5012386;28;20097;-74
2023/04/01 06:48:05;;;;;;;23.65;21.80;;;16.20;60.70;;;;;;5012775;28;20033;-74
2023/04/01 06:50:56;;;;;;;22.38;20.77;;;16.20;60.70;;;;;;5012302;28;20029;-73
2023/04/01 06:53:43;;;;;;;21.60;20.20;;;16.30;60.70;;;;;;5012935;28;20033;-76
2023/04/01 06:56:13;;;;;;;22.50;20.88;;;16.30;60.70;;;;;;5012695;28;20397;-75
2023/04/01 06:58:49;;;;;;;21.35;19.75;;;16.30;60.70;;;;;;5012678;28;20080;-74
2023/04/01 07:01:49;;;;;;;21.58;19.73;;;16.30;60.80;;;;;;5012429;28;20041;-81
2023/04/01 07:04:20;;;;;;;18.33;17.05;;;16.20;60.80;;;;;;5005079;28;20130;-74
2023/04/01 07:07:10;;;;;;;19.52;18.20;;;16.20;60.90;;;;;;5012183;28;20034;-74
2023/04/01 07:09:40;;;;;;;17.75;16.42;;;16.20;60.90;;;;;;5012033;28;20115;-75
2023/04/01 07:12:35;;;;;;;18.05;16.77;;;16.20;60.90;;;;;;5012189;28;20022;-80
2023/04/01 07:15:11;;;;;;;17.48;16.08;;;16.20;61.00;;;;;;5011834;28;20041;-74
2023/04/01 07:17:40;;;;;;;16.85;15.40;;;16.20;61.10;;;;;;5012057;28;20038;-74
2023/04/01 07:20:26;;;;;;;16.75;15.55;;;16.20;61.00;;;;;;5012008;28;20026;-73
2023/04/01 07:23:03;;;;;;;15.73;14.40;;;16.10;61.00;;;;;;5012157;28;20038;-72
2023/04/01 07:25:51;;;;;;;14.13;13.13;;;16.20;61.00;;;;;;5012219;28;20427;-75
2023/04/01 07:28:17;;;;;;;13.95;12.93;;;16.20;60.80;;;;;;5012044;28;20036;-73
2023/04/01 07:31:00;;;;;;;13.30;12.20;;;16.20;60.80;;;;;;5012312;28;20022;-74
2023/04/01 07:34:02;;;;;;;12.70;11.70;;;16.20;60.80;;;;;;5011878;28;20038;-73
2023/04/01 07:36:39;;;;;;;12.32;11.32;;;16.20;60.80;;;;;;5012387;28;20485;-75
2023/04/01 07:39:14;;;;;;;11.98;11.02;;;16.20;60.70;;;;;;5012105;28;20173;-75
2023/04/01 07:41:48;;;;;;;11.38;10.52;;;16.20;60.80;;;;;;5012336;28;20088;-76
2023/04/01 07:44:33;;;;;;;11.15;10.13;;;16.20;60.70;;;;;;5012091;28;20038;-75
2023/04/01 07:47:11;;;;;;;11.45;10.52;;;16.20;61.30;;;;;;5011975;28;20021;-74
2023/04/01 07:50:10;;;;;;;11.35;10.45;;;16.20;60.60;;;;;;5011804;28;20025;-73
2023/04/01 07:52:54;;;;;;;11.00;10.20;;;16.20;60.60;;;;;;5012310;28;20469;-73
2023/04/01 07:55:28;;;;;;;10.10;9.32;;;16.20;60.70;;;;;;5014164;28;20105;-73
2023/04/01 07:58:08;;;;;;;9.82;9.10;;;16.20;60.60;;;;;;5015583;28;20026;-74
2023/04/01 08:00:49;;;;;;;;;;;16.20;60.70;;;;;;5016112;28;20080;-73
2023/04/01 08:03:20;;;;;;;9.38;8.65;;;16.20;60.70;;;;;;5015252;28;19921;-73
2023/04/01 08:06:10;;;;;;;9.30;8.55;;;16.20;60.60;;;;;;5015146;28;20525;-73
2023/04/01 08:08:59;;;;;;;8.50;7.90;;;16.20;60.80;;;;;;5015504;28;20093;-73
2023/04/01 08:11:36;;;;;;;8.02;7.53;;;16.20;60.90;;;;;;5015453;28;20491;-73
2023/04/01 08:14:46;;;;;;;7.72;7.20;;;16.10;60.90;;;;;;5015311;28;20026;-74
2023/04/01 08:17:44;;;;;;;7.22;6.72;;;16.10;61.00;;;;;;5004670;28;20151;-74
2023/04/01 08:20:30;;;;;;;7.03;6.50;;;16.20;61.20;;;;;;5014968;28;20034;-74
2023/04/01 08:23:10;;;;;;;6.63;6.20;;;16.20;61.20;;;;;;5015060;28;20053;-73
2023/04/01 08:25:59;;;;;;;6.68;6.07;;;16.20;61.10;;;;;;5014817;28;20070;-75
2023/04/01 08:28:32;;;;;;;6.18;5.72;;;16.20;61.10;;;;;;5014412;28;20038;-75
2023/04/01 08:31:15;;;;;;;6.13;5.63;;;16.20;61.10;;;;;;5014935;28;20030;-73
2023/04/01 08:33:44;;;;;;;5.78;5.20;;;16.20;61.80;;;;;;5014752;28;20021;-75
2023/04/01 08:36:30;;;;;;;5.13;4.72;;;16.20;61.10;;;;;;5014509;28;20042;-74
2023/04/01 08:39:23;;;;;;;5.25;4.82;;;16.20;61.20;;;;;;5015294;28;20427;-79
2023/04/01 08:42:33;;;;;;;4.68;4.25;;;16.20;61.20;;;;;;5015758;28;20049;-74
2023/04/01 08:45:16;;;;;;;4.15;3.85;;;16.20;61.20;;;;;;5014656;28;20084;-74
2023/04/01 08:48:00;;;;;;;4.75;4.10;;;16.20;61.20;;;;;;5014851;28;20114;-75
2023/04/01 08:50:41;;;;;;;4.07;3.72;;;16.20;61.20;;;;;;5015150;28;20037;-76
2023/04/01 08:53:11;;;;;;;4.00;3.55;;;16.20;61.20;;;;;;5014886;28;20034;-75
2023/04/01 08:55:48;;;;;;;3.72;3.50;;;16.20;61.30;;;;;;5014966;28;20056;-77
2023/04/01 08:58:41;;;;;;;3.60;3.30;;;16.20;61.30;;;;;;5014942;28;20030;-78
2023/04/01 09:01:19;;;;;;;4.07;3.67;;;16.20;61.40;;;;;;5014925;28;20084;-74
2023/04/01 09:04:17;;;;;;;3.15;2.63;;;16.20;61.20;;;;;;5014333;28;20112;-74
2023/04/01 09:07:09;;;;;;;4.50;3.10;;;16.20;61.20;;;;;;5013269;28;20038;-73
2023/04/01 09:10:10;;;;;;;3.72;2.63;;;16.30;61.30;;;;;;5014325;28;20022;-73
2023/04/01 09:12:52;;;;;;;2.60;2.40;;;16.20;61.30;;;;;;5014257;28;20030;-73
2023/04/01 09:15:30;;;;;;;3.28;2.63;;;16.30;61.20;;;;;;5013926;28;20034;-73
2023/04/01 09:18:13;;;;;;;2.30;2.10;;;16.30;61.40;;;;;;5014078;28;20092;-73
2023/04/01 09:20:58;;;;;;;2.30;1.92;;;16.30;61.30;;;;;;5014079;28;20385;-73
2023/04/01 09:23:48;;;;;;;2.35;1.98;;;16.30;61.40;;;;;;5013754;28;20186;-73
2023/04/01 09:27:01;;;;;;;2.25;2.05;;;16.30;61.50;;;;;;5013638;28;20508;-73
2023/04/01 09:29:42;;;;;;;2.72;1.83;;;16.30;61.40;;;;;;5013693;28;20048;-75
2023/04/01 09:32:16;;;;;;;4.05;1.80;;;16.30;61.40;;;;;;5013688;28;20432;-73
2023/04/01 09:35:19;;;;;;;2.55;1.70;;;16.30;61.40;;;;;;5013592;28;20109;-73
2023/04/01 09:38:19;;;;;;;3.28;1.55;;;16.30;61.40;;;;;;5013527;28;20023;-73
2023/04/01 09:40:48;;;;;;;;;;;16.30;61.40;;;;;;5013998;28;20062;-73
2023/04/01 09:43:28;;;;;;;2.65;1.60;;;16.30;61.40;;;;;;5013319;28;20000;-73
2023/04/01 09:46:05;;;;;;;2.42;1.38;;;16.30;62.10;;;;;;5013447;28;20029;-73
2023/04/01 09:48:46;;;;;;;1.67;1.35;;;16.30;61.40;;;;;;5013326;28;20034;-73
2023/04/01 09:51:11;;;;;;;1.95;1.13;;;16.30;61.50;;;;;;5013701;28;20022;-73
2023/04/01 09:53:58;;;;;;;1.50;1.10;;;16.80;61.80;;;;;;5013184;28;20148;-73
2023/04/01 09:57:01;;;;;;;2.33;1.27;;;16.30;61.60;;;;;;5013462;28;20076;-73
2023/04/01 09:59:45;;;;;;;1.60;1.20;;;16.30;61.60;;;;;;5013342;28;20029;-73
2023/04/01 10:02:41;;;;;;;1.67;1.00;;;16.30;61.50;;;;;;5013263;28;20516;-73
2023/04/01 10:05:28;;;;;;;1.52;0.80;;;16.30;61.60;;;;;;4976696;28;20027;-72
2023/04/01 10:08:22;;;;;;;1.00;0.95;;;16.30;61.50;;;;;;5013010;28;20503;-75
2023/04/01 10:11:35;;;;;;;2.03;0.90;;;16.30;61.60;;;;;;5013235;28;20026;-72
2023/04/01 10:14:01;;;;;;;1.95;1.10;;;15.70;61.30;;;;;;4990654;28;20046;-74
2023/04/01 10:16:28;;;;;;;1.65;0.82;;;16.30;61.60;;;;;;5012804;28;20046;-75
2023/04/01 10:19:19;;;;;;;1.27;0.70;;;16.30;61.60;;;;;;5012805;28;20092;-75
2023/04/01 10:22:01;;;;;;;1.13;1.02;;;16.40;61.70;;;;;;5012729;28;20033;-74
2023/04/01 10:24:45;;;;;;;1.52;0.82;;;16.60;61.80;;;;;;5012792;28;20038;-74
2023/04/01 10:27:29;;;;;;;2.13;1.08;;;16.40;61.60;;;;;;5012927;28;20485;-74
2023/04/01 10:30:39;;;;;;;1.00;1.00;;;16.30;61.60;;;;;;5012738;28;20096;-74
2023/04/01 10:33:15;;;;;;;1.58;0.90;;;16.30;61.60;;;;;;5008032;28;20022;-74
2023/04/01 10:35:58;;;;;;;0.85;0.75;;;16.40;61.60;;;;;;5012652;28;20054;-74
2023/04/01 10:38:43;;;;;;;1.63;0.70;;;16.40;61.70;;;;;;5012823;28;20389;-74
2023/04/01 10:41:31;;;;;;;1.88;0.98;;;16.40;61.80;;;;;;5012496;28;20084;-73
2023/04/01 10:44:09;;;;;;;1.70;0.80;;;16.40;61.70;;;;;;5012361;28;20482;-74
2023/04/01 10:46:59;;;;;;;0.73;0.73;;;16.40;61.60;;;;;;5012567;28;20025;-74
2023/04/01 10:49:42;;;;;;;0.80;0.70;;;16.40;61.60;;;;;;5012707;28;20079;-73
2023/04/01 10:52:51;;;;;;;1.17;0.80;;;16.40;61.60;;;;;;5012733;28;20034;-74
2023/04/01 10:55:25;;;;;;;0.75;0.70;;;16.40;61.60;;;;;;4966349;28;20042;-75
2023/04/01 10:58:00;;;;;;;0.88;0.55;;;16.40;61.70;;;;;;5012672;28;20116;-74
2023/04/01 11:00:26;;;;;;;0.75;0.75;;;16.40;61.50;;;;;;5012326;28;20105;-74
2023/04/01 11:03:25;;;;;;;1.13;0.82;;;16.40;61.60;;;;;;5012478;28;20124;-77
2023/04/01 11:05:56;;;;;;;0.70;0.65;;;16.40;61.70;;;;;;5012333;28;20107;-74
2023/04/01 11:08:52;;;;;;;1.10;0.90;;;16.40;61.60;;;;;;5012257;28;20034;-73
2023/04/01 11:11:39;;;;;;;1.35;0.60;;;16.40;61.60;;;;;;5012477;28;20042;-73
2023/04/01 11:14:34;;;;;;;0.85;0.70;;;16.50;61.70;;;;;;5012498;28;20034;-73
2023/04/01 11:17:17;;;;;;;1.13;0.77;;;16.50;61.70;;;;;;5010648;28;20050;-73
2023/04/01 11:19:53;;;;;;;1.08;0.70;;;16.40;61.70;;;;;;5012367;28;20030;-73
2023/04/01 11:22:54;;;;;;;0.95;0.50;;;16.40;61.60;;;;;;5012349;28;20531;-74
2023/04/01 11:25:46;;;;;;;1.65;0.63;;;16.40;61.60;;;;;;5012128;28;20097;-73
2023/04/01 11:28:45;;;;;;;2.05;0.73;;;16.50;61.80;;;;;;5012340;28;20389;-73
2023/04/01 11:31:34;;;;;;;0.70;0.52;;;16.50;61.80;;;;;;5002162;28;20064;-74
2023/04/01 11:34:37;;;;;;;0.70;0.60;;;16.40;61.80;;;;;;5015993;28;20032;-74
2023/04/01 11:37:15;;;;;;;0.63;0.57;;;16.40;61.80;;;;;;5015931;28;20033;-75
2023/04/01 11:40:02;;;;;;;0.70;0.60;;;16.40;61.80;;;;;;5016153;28;20392;-74
2023/04/01 11:42:49;;;;;;;0.98;0.60;;;16.50;61.80;;;;;;5015560;28;20033;-75
2023/04/01 11:45:41;;;;;;;1.10;0.63;;;16.50;61.70;;;;;;4999909;28;20037;-75
2023/04/01 11:48:28;;;;;;;0.75;0.68;;;16.50;61.80;;;;;;5015401;28;20548;-74
2023/04/01 11:51:09;;;;;;;1.25;0.40;;;16.40;61.90;;;;;;5015334;28;20077;-74
2023/04/01 11:54:00;;;;;;;5.20;0.75;;;16.50;61.90;;;;;;5015806;28;20084;-75
2023/04/01 11:56:31;;;;;;;;;;;16.50;62.00;;;;;;5016077;28;20121;-75
2023/04/01 11:59:27;;;;;;;2.63;0.65;;;16.50;62.20;;;;;;5015604;28;19906;-75
2023/04/01 12:02:14;;;;;;;13.88;1.42;;;16.50;62.30;;;;;;5015468;28;20034;-75
2023/04/01 12:05:07;;;;;;;7.45;2.17;;;16.50;62.30;;;;;;5015221;28;20222;-73
2023/04/01 12:07:38;;;;;;;29.65;7.28;;;16.40;62.30;;;;;;5015276;28;20040;-73
2023/04/01 12:10:31;;;;;;;61.00;18.63;;;16.50;62.40;;;;;;5015162;28;20026;-74
2023/04/01 12:13:09;;;;;;;72.63;22.55;;;16.50;62.50;;;;;;5015129;28;20034;-74
2023/04/01 12:15:41;;;;;;;81.38;26.38;;;16.50;62.40;;;;;;5014911;28;20042;-74
2023/04/01 12:18:09;;;;;;;73.10;25.83;;;16.50;62.50;;;;;;5015065;28;20076;-73
2023/04/01 12:20:53;;;;;;;72.47;24.10;;;16.50;62.50;;;;;;5014753;28;20022;-74
2023/04/01 12:23:52;;;;;;;73.10;22.20;;;16.50;62.60;;;;;;5014870;28;20100;-75
2023/04/01 12:26:44;;;;;;;54.57;20.30;;;16.50;62.60;;;;;;5014936;28;20393;-73
2023/04/01 12:29:37;;;;;;;54.67;18.30;;;16.50;62.70;;;;;;5015001;28;20037;-75
2023/04/01 12:32:39;;;;;;;50.13;16.58;;;16.50;63.40;;;;;;5014683;28;20428;-75
2023/04/01 12:35:08;;;;;;;44.17;13.63;;;16.50;62.80;;;;;;5015068;28;20054;-77
2023/04/01 12:37:39;;;;;;;37.22;13.63;;;16.50;62.80;;;;;;5014773;28;20018;-75
2023/04/01 12:40:38;;;;;;;33.20;11.98;;;16.50;62.70;;;;;;5014496;28;20120;-74
2023/04/01 12:43:41;;;;;;;24.70;9.98;;;16.50;62.80;;;;;;5014341;28;20034;-75
2023/04/01 12:46:22;;;;;;;21.95;9.88;;;16.50;62.70;;;;;;5014234;28;20030;-75
2023/04/01 12:49:11;;;;;;;22.00;8.35;;;16.50;62.70;;;;;;5014449;28;20113;-75
2023/04/01 12:52:05;;;;;;;24.58;8.57;;;16.50;62.70;;;;;;5014595;28;20052;-74
2023/04/01 12:54:56;;;;;;;19.63;7.18;;;16.50;62.70;;;;;;5014225;28;20100;-74
2023/04/01 12:58:20;;;;;;;20.35;7.07;;;16.50;62.80;;;;;;5014106;28;20025;-75
2023/04/01 13:01:10;;;;;;;18.80;7.22;;;16.50;62.80;;;;;;4972691;28;20031;-73
2023/04/01 13:03:54;;;;;;;;;;;16.50;62.80;;;;;;5013983;28;20049;-73
2023/04/01 13:06:51;;;;;;;15.60;5.60;;;16.50;63.00;;;;;;5014204;28;19905;-73
2023/04/01 13:09:47;;;;;;;17.48;5.63;;;16.50;62.90;;;;;;5013829;28;20503;-73
2023/04/01 13:12:25;;;;;;;13.38;5.13;;;16.50;62.90;;;;;;5013911;28;20040;-73
2023/04/01 13:15:15;;;;;;;16.20;5.00;;;16.50;62.80;;;;;;5013686;28;20144;-74
2023/04/01 13:17:56;;;;;;;14.10;5.55;;;16.50;62.90;;;;;;5013977;28;20065;-73
2023/04/01 13:20:35;;;;;;;12.00;5.07;;;16.50;63.50;;;;;;5013969;28;20018;-74
2023/04/01 13:23:24;;;;;;;10.45;4.80;;;16.50;62.90;;;;;;5013462;28;20056;-73
2023/04/01 13:26:25;;;;;;;9.88;4.22;;;16.50;62.70;;;;;;5013551;28;20060;-73
2023/04/01 13:28:59;;;;;;;8.05;3.95;;;16.50;62.80;;;;;;5013435;28;20025;-73
2023/04/01 13:31:38;;;;;;;8.75;4.05;;;16.50;62.80;;;;;;5013576;28;20366;-73
2023/04/01 13:34:43;;;;;;;7.78;3.45;;;16.60;62.90;;;;;;5013817;28;20080;-73